createdAt,value
2018-04-23T00:00:27.133Z,1004.31
2018-04-23T00:01:02.428Z,1004.32
2018-04-23T00:01:37.966Z,1004.30
2018-04-23T00:02:13.345Z,1004.31
2018-04-23T00:02:48.684Z,1004.37
2018-04-23T00:03:24.179Z,1004.39
2018-04-23T00:03:59.493Z,1004.43
2018-04-23T00:04:36.025Z,1004.44
2018-04-23T00:05:11.551Z,1004.38
2018-04-23T00:05:46.773Z,1004.37
2018-04-23T00:06:22.126Z,1004.40
2018-04-23T00:06:57.637Z,1004.39
2018-04-23T00:07:32.952Z,1004.32
2018-04-23T00:08:08.678Z,1004.28
2018-04-23T00:08:44.992Z,1004.29
2018-04-23T00:09:20.288Z,1004.31
2018-04-23T00:09:55.861Z,1004.41
2018-04-23T00:10:31.748Z,1004.26
2018-04-23T00:11:07.182Z,1004.27
2018-04-23T00:11:42.680Z,1004.23
2018-04-23T00:12:17.794Z,1004.26
2018-04-23T00:12:53.502Z,1004.24
2018-04-23T00:13:28.728Z,1004.22
2018-04-23T00:14:04.220Z,1004.23
2018-04-23T00:14:39.368Z,1004.23
2018-04-23T00:15:14.892Z,1004.17
2018-04-23T00:15:52.413Z,1004.19
2018-04-23T00:16:27.824Z,1004.16
2018-04-23T00:17:03.061Z,1004.12
2018-04-23T00:17:38.263Z,1004.09
2018-04-23T00:18:13.495Z,1004.09
2018-04-23T00:18:49.501Z,1004.06
2018-04-23T00:19:24.730Z,1004.01
2018-04-23T00:20:00.158Z,1004.01
2018-04-23T00:20:36.495Z,1004.04
2018-04-23T00:21:11.913Z,1004.03
2018-04-23T00:21:47.036Z,1004.03
2018-04-23T00:22:22.255Z,1004.01
2018-04-23T00:22:57.593Z,1004.04
2018-04-23T00:23:32.695Z,1004.07
2018-04-23T00:24:08.139Z,1004.04
2018-04-23T00:24:43.628Z,1004.10
2018-04-23T00:25:18.975Z,1004.15
2018-04-23T00:25:54.560Z,1004.12
2018-04-23T00:26:29.982Z,1004.21
2018-04-23T00:27:05.267Z,1004.23
2018-04-23T00:27:40.501Z,1004.27
2018-04-23T00:28:15.897Z,1004.32
2018-04-23T00:28:51.208Z,1004.42
2018-04-23T00:29:26.630Z,1004.50
2018-04-23T00:30:01.988Z,1004.59
2018-04-23T00:30:37.528Z,1004.63
2018-04-23T00:31:13.048Z,1004.64
2018-04-23T00:31:48.530Z,1004.67
2018-04-23T00:32:24.262Z,1004.70
2018-04-23T00:32:59.448Z,1004.67
2018-04-23T00:33:34.974Z,1004.73
2018-04-23T00:34:10.181Z,1004.66
2018-04-23T00:34:45.412Z,1004.75
2018-04-23T00:35:20.653Z,1004.71
2018-04-23T00:35:56.177Z,1004.76
2018-04-23T00:36:31.812Z,1004.78
2018-04-23T00:37:07.120Z,1004.78
2018-04-23T00:37:42.416Z,1004.85
2018-04-23T00:38:17.632Z,1004.84
2018-04-23T00:38:53.225Z,1004.72
2018-04-23T00:39:28.479Z,1004.80
2018-04-23T00:40:03.702Z,1004.87
2018-04-23T00:40:41.243Z,1004.79
2018-04-23T00:41:17.218Z,1004.84
2018-04-23T00:41:52.830Z,1004.72
2018-04-23T00:42:28.245Z,1004.74
2018-04-23T00:43:03.459Z,1004.78
2018-04-23T00:43:38.644Z,1004.77
2018-04-23T00:44:14.324Z,1004.75
2018-04-23T00:44:49.541Z,1004.81
2018-04-23T00:45:25.284Z,1004.75
2018-04-23T00:46:01.976Z,1004.70
2018-04-23T00:46:37.494Z,1004.68
2018-04-23T00:47:12.787Z,1004.73
2018-04-23T00:47:48.003Z,1004.76
2018-04-23T00:48:23.313Z,1004.78
2018-04-23T00:48:58.673Z,1004.79
2018-04-23T00:49:34.367Z,1004.77
2018-04-23T00:50:09.827Z,1004.71
2018-04-23T00:50:45.358Z,1004.79
2018-04-23T00:51:21.081Z,1004.75
2018-04-23T00:51:56.470Z,1004.71
2018-04-23T00:52:32.108Z,1004.65
2018-04-23T00:53:07.592Z,1004.69
2018-04-23T00:53:43.011Z,1004.58
2018-04-23T00:54:18.402Z,1004.54
2018-04-23T00:54:54.238Z,1004.53
2018-04-23T00:55:29.787Z,1004.51
2018-04-23T00:56:04.933Z,1004.47
2018-04-23T00:56:40.219Z,1004.45
2018-04-23T00:57:15.744Z,1004.39
2018-04-23T00:57:50.729Z,1004.31
2018-04-23T00:58:26.158Z,1004.35
2018-04-23T00:59:01.794Z,1004.37
2018-04-23T00:59:37.128Z,1004.42
2018-04-23T01:00:12.232Z,1004.42
2018-04-23T01:00:47.567Z,1004.48
2018-04-23T01:01:23.175Z,1004.52
2018-04-23T01:01:58.822Z,1004.52
2018-04-23T01:02:34.257Z,1004.52
2018-04-23T01:03:09.895Z,1004.53
2018-04-23T01:03:45.387Z,1004.50
2018-04-23T01:04:20.817Z,1004.55
2018-04-23T01:04:55.999Z,1004.59
2018-04-23T01:05:31.068Z,1004.59
2018-04-23T01:06:06.581Z,1004.65
2018-04-23T01:06:41.705Z,1004.64
2018-04-23T01:07:17.101Z,1004.66
2018-04-23T01:07:52.525Z,1004.65
2018-04-23T01:08:27.629Z,1004.67
2018-04-23T01:09:03.176Z,1004.69
2018-04-23T01:09:38.469Z,1004.73
2018-04-23T01:10:13.705Z,1004.72
2018-04-23T01:10:49.137Z,1004.74
2018-04-23T01:11:27.049Z,1004.69
2018-04-23T01:12:02.128Z,1004.71
2018-04-23T01:12:40.057Z,1004.65
2018-04-23T01:13:15.398Z,1004.60
2018-04-23T01:13:50.833Z,1004.60
2018-04-23T01:14:26.323Z,1004.65
2018-04-23T01:15:01.753Z,1004.66
2018-04-23T01:15:37.676Z,1004.60
2018-04-23T01:16:12.895Z,1004.65
2018-04-23T01:16:55.068Z,1004.59
2018-04-23T01:17:30.095Z,1004.58
2018-04-23T01:18:05.418Z,1004.56
2018-04-23T01:18:40.645Z,1004.64
2018-04-23T01:19:16.052Z,1004.60
2018-04-23T01:19:51.615Z,1004.59
2018-04-23T01:20:26.943Z,1004.55
2018-04-23T01:21:03.020Z,1004.59
2018-04-23T01:21:38.566Z,1004.58
2018-04-23T01:22:13.908Z,1004.54
2018-04-23T01:22:50.814Z,1004.55
2018-04-23T01:23:26.047Z,1004.55
2018-04-23T01:24:01.446Z,1004.56
2018-04-23T01:24:37.189Z,1004.54
2018-04-23T01:25:12.822Z,1004.62
2018-04-23T01:25:48.091Z,1004.60
2018-04-23T01:26:23.917Z,1004.60
2018-04-23T01:27:00.375Z,1004.58
2018-04-23T01:27:35.783Z,1004.58
2018-04-23T01:28:11.102Z,1004.59
2018-04-23T01:28:46.692Z,1004.60
2018-04-23T01:29:22.049Z,1004.58
2018-04-23T01:29:58.758Z,1004.69
2018-04-23T01:30:34.324Z,1004.64
2018-04-23T01:31:09.826Z,1004.67
2018-04-23T01:31:45.341Z,1004.63
2018-04-23T01:32:20.770Z,1004.64
2018-04-23T01:32:56.019Z,1004.70
2018-04-23T01:33:33.913Z,1004.70
2018-04-23T01:34:09.244Z,1004.73
2018-04-23T01:34:44.476Z,1004.77
2018-04-23T01:35:19.603Z,1004.77
2018-04-23T01:35:54.747Z,1004.79
2018-04-23T01:36:30.069Z,1004.82
2018-04-23T01:37:05.537Z,1004.81
2018-04-23T01:37:41.321Z,1004.81
2018-04-23T01:38:16.825Z,1004.87
2018-04-23T01:38:52.273Z,1004.83
2018-04-23T01:39:27.595Z,1004.82
2018-04-23T01:40:02.929Z,1004.84
2018-04-23T01:40:38.345Z,1004.84
2018-04-23T01:41:17.426Z,1004.83
2018-04-23T01:41:52.764Z,1004.82
2018-04-23T01:42:28.296Z,1004.79
2018-04-23T01:43:03.599Z,1004.79
2018-04-23T01:43:38.837Z,1004.81
2018-04-23T01:44:14.068Z,1004.84
2018-04-23T01:44:50.407Z,1004.85
2018-04-23T01:45:27.504Z,1004.83
2018-04-23T01:46:03.035Z,1004.84
2018-04-23T01:46:38.366Z,1004.90
2018-04-23T01:47:14.114Z,1004.89
2018-04-23T01:47:50.038Z,1004.90
2018-04-23T01:48:25.693Z,1004.92
2018-04-23T01:49:00.911Z,1004.92
2018-04-23T01:49:36.355Z,1004.94
2018-04-23T01:50:11.573Z,1004.96
2018-04-23T01:50:47.012Z,1004.94
2018-04-23T01:51:22.727Z,1004.97
2018-04-23T01:51:57.991Z,1004.92
2018-04-23T01:52:32.901Z,1005.00
2018-04-23T01:53:08.440Z,1004.95
2018-04-23T01:53:44.061Z,1004.96
2018-04-23T01:54:19.325Z,1004.99
2018-04-23T01:54:55.029Z,1004.97
2018-04-23T01:55:30.364Z,1004.98
2018-04-23T01:56:05.555Z,1004.96
2018-04-23T01:56:41.209Z,1004.95
2018-04-23T01:57:16.546Z,1004.94
2018-04-23T01:57:51.814Z,1004.91
2018-04-23T01:58:27.227Z,1004.92
2018-04-23T01:59:02.593Z,1004.91
2018-04-23T01:59:40.034Z,1004.96
2018-04-23T02:00:15.673Z,1004.92
2018-04-23T02:00:51.184Z,1004.89
2018-04-23T02:01:26.202Z,1004.92
2018-04-23T02:02:01.409Z,1004.90
2018-04-23T02:02:36.960Z,1004.89
2018-04-23T02:03:14.263Z,1004.89
2018-04-23T02:03:49.836Z,1004.88
2018-04-23T02:04:28.249Z,1004.88
2018-04-23T02:05:03.485Z,1004.89
2018-04-23T02:05:38.977Z,1004.91
2018-04-23T02:06:14.430Z,1004.93
2018-04-23T02:06:50.773Z,1004.92
2018-04-23T02:07:27.610Z,1004.95
2018-04-23T02:08:03.465Z,1004.90
2018-04-23T02:08:39.103Z,1004.90
2018-04-23T02:09:14.400Z,1004.92
2018-04-23T02:09:53.259Z,1004.92
2018-04-23T02:10:28.377Z,1004.94
2018-04-23T02:11:04.022Z,1004.91
2018-04-23T02:11:39.527Z,1004.87
2018-04-23T02:12:15.217Z,1004.87
2018-04-23T02:12:50.445Z,1004.88
2018-04-23T02:13:25.943Z,1004.88
2018-04-23T02:14:01.279Z,1004.89
2018-04-23T02:14:37.130Z,1004.89
2018-04-23T02:15:12.568Z,1004.91
2018-04-23T02:15:48.007Z,1004.91
2018-04-23T02:16:23.567Z,1004.88
2018-04-23T02:16:59.140Z,1004.86
2018-04-23T02:17:34.557Z,1004.89
2018-04-23T02:18:10.179Z,1004.94
2018-04-23T02:18:46.343Z,1004.93
2018-04-23T02:19:22.003Z,1004.92
2018-04-23T02:19:57.429Z,1004.91
2018-04-23T02:20:32.974Z,1004.94
2018-04-23T02:21:08.175Z,1004.87
2018-04-23T02:21:44.310Z,1004.89
2018-04-23T02:22:19.497Z,1004.88
2018-04-23T02:22:57.201Z,1004.90
2018-04-23T02:23:32.457Z,1004.90
2018-04-23T02:24:07.910Z,1004.89
2018-04-23T02:24:44.357Z,1004.91
2018-04-23T02:25:23.080Z,1004.89
2018-04-23T02:26:01.789Z,1004.88
2018-04-23T02:26:37.210Z,1004.91
2018-04-23T02:27:12.544Z,1004.98
2018-04-23T02:27:47.800Z,1004.91
2018-04-23T02:28:23.307Z,1004.87
2018-04-23T02:28:58.451Z,1004.89
2018-04-23T02:29:33.812Z,1004.86
2018-04-23T02:30:09.345Z,1004.90
2018-04-23T02:30:44.762Z,1004.87
2018-04-23T02:31:20.415Z,1004.90
2018-04-23T02:31:56.134Z,1004.81
2018-04-23T02:32:31.832Z,1004.84
2018-04-23T02:33:06.956Z,1004.85
2018-04-23T02:33:42.452Z,1004.82
2018-04-23T02:34:17.878Z,1004.81
2018-04-23T02:34:53.391Z,1004.86
2018-04-23T02:35:28.603Z,1004.85
2018-04-23T02:36:03.941Z,1004.86
2018-04-23T02:36:39.126Z,1004.85
2018-04-23T02:37:14.346Z,1004.88
2018-04-23T02:37:52.363Z,1004.88
2018-04-23T02:38:27.604Z,1004.89
2018-04-23T02:39:02.843Z,1004.89
2018-04-23T02:39:38.180Z,1004.88
2018-04-23T02:40:13.545Z,1004.87
2018-04-23T02:40:48.987Z,1004.86
2018-04-23T02:41:24.194Z,1004.86
2018-04-23T02:41:59.524Z,1004.86
2018-04-23T02:42:34.746Z,1004.87
2018-04-23T02:43:09.804Z,1004.83
2018-04-23T02:43:45.141Z,1004.84
2018-04-23T02:44:22.585Z,1004.88
2018-04-23T02:44:58.916Z,1004.88
2018-04-23T02:45:34.415Z,1004.86
2018-04-23T02:46:09.709Z,1004.85
2018-04-23T02:46:45.138Z,1004.84
2018-04-23T02:47:20.343Z,1004.85
2018-04-23T02:47:55.691Z,1004.84
2018-04-23T02:48:31.039Z,1004.82
2018-04-23T02:49:06.273Z,1004.84
2018-04-23T02:49:41.591Z,1004.90
2018-04-23T02:50:16.864Z,1004.88
2018-04-23T02:50:52.106Z,1004.89
2018-04-23T02:51:27.236Z,1004.90
2018-04-23T02:52:02.555Z,1004.87
2018-04-23T02:52:38.070Z,1004.87
2018-04-23T02:53:13.279Z,1004.92
2018-04-23T02:53:48.515Z,1004.85
2018-04-23T02:54:24.138Z,1004.90
2018-04-23T02:54:59.659Z,1004.84
2018-04-23T02:55:35.243Z,1004.83
2018-04-23T02:56:10.748Z,1004.83
2018-04-23T02:56:46.169Z,1004.86
2018-04-23T02:57:21.530Z,1004.86
2018-04-23T02:57:56.937Z,1004.90
2018-04-23T02:58:32.376Z,1004.84
2018-04-23T02:59:07.766Z,1004.88
2018-04-23T02:59:43.020Z,1004.85
2018-04-23T03:00:18.774Z,1004.86
2018-04-23T03:00:54.302Z,1004.89
2018-04-23T03:01:31.752Z,1004.84
2018-04-23T03:02:07.112Z,1004.83
2018-04-23T03:02:42.341Z,1004.82
2018-04-23T03:03:18.078Z,1004.85
2018-04-23T03:03:54.379Z,1004.88
2018-04-23T03:04:29.515Z,1004.91
2018-04-23T03:05:04.716Z,1004.91
2018-04-23T03:05:40.558Z,1004.92
2018-04-23T03:06:15.896Z,1004.91
2018-04-23T03:06:51.080Z,1004.87
2018-04-23T03:07:26.233Z,1004.90
2018-04-23T03:08:01.802Z,1004.91
2018-04-23T03:08:37.926Z,1004.93
2018-04-23T03:09:13.383Z,1004.90
2018-04-23T03:09:48.772Z,1004.86
2018-04-23T03:10:24.191Z,1004.89
2018-04-23T03:10:59.706Z,1004.91
2018-04-23T03:11:34.987Z,1004.93
2018-04-23T03:12:11.431Z,1004.94
2018-04-23T03:12:46.892Z,1004.95
2018-04-23T03:13:24.891Z,1004.93
2018-04-23T03:14:00.304Z,1004.95
2018-04-23T03:14:37.534Z,1004.92
2018-04-23T03:15:14.687Z,1004.92
2018-04-23T03:15:53.350Z,1004.94
2018-04-23T03:16:28.487Z,1004.93
2018-04-23T03:17:04.089Z,1004.92
2018-04-23T03:17:39.343Z,1004.94
2018-04-23T03:18:14.669Z,1004.99
2018-04-23T03:18:50.321Z,1005.01
2018-04-23T03:19:25.826Z,1005.02
2018-04-23T03:20:01.273Z,1005.00
2018-04-23T03:20:37.400Z,1005.06
2018-04-23T03:21:12.872Z,1005.04
2018-04-23T03:21:48.182Z,1005.03
2018-04-23T03:22:23.517Z,1005.06
2018-04-23T03:22:58.975Z,1005.07
2018-04-23T03:23:34.920Z,1005.04
2018-04-23T03:24:10.353Z,1005.07
2018-04-23T03:24:45.389Z,1005.07
2018-04-23T03:25:20.501Z,1005.02
2018-04-23T03:25:56.060Z,1005.05
2018-04-23T03:26:31.573Z,1005.06
2018-04-23T03:27:06.905Z,1005.09
2018-04-23T03:27:42.418Z,1005.07
2018-04-23T03:28:17.787Z,1005.09
2018-04-23T03:28:53.186Z,1005.12
2018-04-23T03:29:28.459Z,1005.08
2018-04-23T03:30:03.983Z,1005.10
2018-04-23T03:30:42.209Z,1005.09
2018-04-23T03:31:20.330Z,1005.09
2018-04-23T03:31:55.588Z,1005.11
2018-04-23T03:32:30.808Z,1005.11
2018-04-23T03:33:06.135Z,1005.12
2018-04-23T03:33:42.613Z,1005.13
2018-04-23T03:34:17.945Z,1005.10
2018-04-23T03:34:53.962Z,1005.14
2018-04-23T03:35:29.423Z,1005.13
2018-04-23T03:36:04.958Z,1005.13
2018-04-23T03:36:40.095Z,1005.18
2018-04-23T03:37:15.414Z,1005.11
2018-04-23T03:37:52.965Z,1005.11
2018-04-23T03:38:28.252Z,1005.13
2018-04-23T03:39:03.851Z,1005.13
2018-04-23T03:39:41.270Z,1005.11
2018-04-23T03:40:16.593Z,1005.10
2018-04-23T03:40:56.193Z,1005.13
2018-04-23T03:41:31.419Z,1005.09
2018-04-23T03:42:06.851Z,1005.13
2018-04-23T03:42:42.993Z,1005.11
2018-04-23T03:43:18.588Z,1005.12
2018-04-23T03:43:53.937Z,1005.13
2018-04-23T03:44:29.480Z,1005.10
2018-04-23T03:45:04.728Z,1005.08
2018-04-23T03:45:39.814Z,1005.09
2018-04-23T03:46:15.360Z,1005.05
2018-04-23T03:46:51.061Z,1005.07
2018-04-23T03:47:26.690Z,1005.12
2018-04-23T03:48:02.125Z,1005.13
2018-04-23T03:48:37.573Z,1005.12
2018-04-23T03:49:13.071Z,1005.16
2018-04-23T03:49:48.435Z,1005.19
2018-04-23T03:50:23.559Z,1005.24
2018-04-23T03:50:58.913Z,1005.20
2018-04-23T03:51:35.720Z,1005.24
2018-04-23T03:52:11.068Z,1005.27
2018-04-23T03:52:48.854Z,1005.22
2018-04-23T03:53:24.273Z,1005.24
2018-04-23T03:53:59.370Z,1005.28
2018-04-23T03:54:34.643Z,1005.28
2018-04-23T03:55:09.973Z,1005.26
2018-04-23T03:55:45.716Z,1005.26
2018-04-23T03:56:20.853Z,1005.26
2018-04-23T03:56:56.475Z,1005.27
2018-04-23T03:57:31.970Z,1005.24
2018-04-23T03:58:07.813Z,1005.31
2018-04-23T03:58:44.432Z,1005.29
2018-04-23T03:59:19.686Z,1005.29
2018-04-23T03:59:55.297Z,1005.34
2018-04-23T04:00:30.947Z,1005.39
2018-04-23T04:01:06.373Z,1005.37
2018-04-23T04:01:41.654Z,1005.35
2018-04-23T04:02:17.167Z,1005.37
2018-04-23T04:02:52.846Z,1005.43
2018-04-23T04:03:28.240Z,1005.46
2018-04-23T04:04:03.799Z,1005.47
2018-04-23T04:04:39.637Z,1005.49
2018-04-23T04:05:15.109Z,1005.46
2018-04-23T04:05:50.049Z,1005.46
2018-04-23T04:06:25.581Z,1005.47
2018-04-23T04:07:00.881Z,1005.53
2018-04-23T04:07:36.233Z,1005.47
2018-04-23T04:08:11.447Z,1005.50
2018-04-23T04:08:47.228Z,1005.49
2018-04-23T04:09:22.724Z,1005.51
2018-04-23T04:09:57.904Z,1005.50
2018-04-23T04:10:33.297Z,1005.52
2018-04-23T04:11:11.374Z,1005.51
2018-04-23T04:11:46.821Z,1005.49
2018-04-23T04:12:22.252Z,1005.54
2018-04-23T04:12:58.679Z,1005.54
2018-04-23T04:13:34.140Z,1005.52
2018-04-23T04:14:09.357Z,1005.55
2018-04-23T04:14:46.402Z,1005.55
2018-04-23T04:15:22.499Z,1005.56
2018-04-23T04:15:57.973Z,1005.57
2018-04-23T04:16:33.508Z,1005.60
2018-04-23T04:17:08.871Z,1005.63
2018-04-23T04:17:44.382Z,1005.65
2018-04-23T04:18:19.812Z,1005.64
2018-04-23T04:18:55.422Z,1005.64
2018-04-23T04:19:30.944Z,1005.63
2018-04-23T04:20:06.168Z,1005.67
2018-04-23T04:20:44.515Z,1005.60
2018-04-23T04:21:19.976Z,1005.65
2018-04-23T04:21:55.428Z,1005.64
2018-04-23T04:22:30.639Z,1005.66
2018-04-23T04:23:05.987Z,1005.65
2018-04-23T04:23:42.503Z,1005.65
2018-04-23T04:24:17.841Z,1005.64
2018-04-23T04:24:53.263Z,1005.65
2018-04-23T04:25:33.542Z,1005.70
2018-04-23T04:26:08.940Z,1005.67
2018-04-23T04:26:43.971Z,1005.70
2018-04-23T04:27:19.112Z,1005.71
2018-04-23T04:27:55.057Z,1005.71
2018-04-23T04:28:31.115Z,1005.71
2018-04-23T04:29:06.228Z,1005.74
2018-04-23T04:29:42.939Z,1005.69
2018-04-23T04:30:18.290Z,1005.68
2018-04-23T04:30:54.686Z,1005.67
2018-04-23T04:31:30.135Z,1005.69
2018-04-23T04:32:05.565Z,1005.70
2018-04-23T04:32:40.627Z,1005.69
2018-04-23T04:33:15.923Z,1005.74
2018-04-23T04:33:51.272Z,1005.73
2018-04-23T04:34:26.164Z,1005.72
2018-04-23T04:35:01.519Z,1005.73
2018-04-23T04:35:36.705Z,1005.75
2018-04-23T04:36:13.783Z,1005.72
2018-04-23T04:36:49.090Z,1005.76
2018-04-23T04:37:24.420Z,1005.76
2018-04-23T04:37:59.897Z,1005.76
2018-04-23T04:38:35.351Z,1005.78
2018-04-23T04:39:10.760Z,1005.83
2018-04-23T04:39:45.988Z,1005.82
2018-04-23T04:40:21.395Z,1005.80
2018-04-23T04:40:56.760Z,1005.84
2018-04-23T04:41:32.106Z,1005.87
2018-04-23T04:42:07.463Z,1005.83
2018-04-23T04:42:45.275Z,1005.82
2018-04-23T04:43:21.056Z,1005.79
2018-04-23T04:43:59.530Z,1005.80
2018-04-23T04:44:35.721Z,1005.79
2018-04-23T04:45:11.455Z,1005.84
2018-04-23T04:45:47.589Z,1005.80
2018-04-23T04:46:26.020Z,1005.77
2018-04-23T04:47:01.453Z,1005.81
2018-04-23T04:47:37.296Z,1005.80
2018-04-23T04:48:12.770Z,1005.81
2018-04-23T04:48:47.965Z,1005.79
2018-04-23T04:49:23.522Z,1005.80
2018-04-23T04:49:58.824Z,1005.79
2018-04-23T04:50:33.993Z,1005.85
2018-04-23T04:51:09.316Z,1005.85
2018-04-23T04:51:44.975Z,1005.81
2018-04-23T04:52:20.110Z,1005.82
2018-04-23T04:52:55.364Z,1005.83
2018-04-23T04:53:30.533Z,1005.87
2018-04-23T04:54:05.861Z,1005.85
2018-04-23T04:54:41.979Z,1005.87
2018-04-23T04:55:19.033Z,1005.86
2018-04-23T04:55:54.937Z,1005.88
2018-04-23T04:56:30.302Z,1005.86
2018-04-23T04:57:05.713Z,1005.90
2018-04-23T04:57:41.169Z,1005.88
2018-04-23T04:58:16.968Z,1005.92
2018-04-23T04:58:52.326Z,1005.92
2018-04-23T04:59:27.820Z,1005.87
2018-04-23T05:00:03.249Z,1005.89
2018-04-23T05:00:38.856Z,1005.83
2018-04-23T05:01:13.898Z,1005.85
2018-04-23T05:01:49.391Z,1005.88
2018-04-23T05:02:24.836Z,1005.80
2018-04-23T05:03:00.054Z,1005.85
2018-04-23T05:03:35.610Z,1005.83
2018-04-23T05:04:10.986Z,1005.85
2018-04-23T05:04:46.567Z,1005.88
2018-04-23T05:05:21.978Z,1005.87
2018-04-23T05:05:57.477Z,1005.93
2018-04-23T05:06:32.849Z,1005.92
2018-04-23T05:07:08.367Z,1005.91
2018-04-23T05:07:43.772Z,1005.97
2018-04-23T05:08:19.134Z,1005.96
2018-04-23T05:08:54.237Z,1005.95
2018-04-23T05:09:29.497Z,1006.00
2018-04-23T05:10:05.207Z,1005.95
2018-04-23T05:10:40.848Z,1005.95
2018-04-23T05:11:16.285Z,1005.99
2018-04-23T05:11:51.676Z,1005.95
2018-04-23T05:12:27.095Z,1005.98
2018-04-23T05:13:02.630Z,1005.98
2018-04-23T05:13:38.446Z,1005.99
2018-04-23T05:14:13.783Z,1006.01
2018-04-23T05:14:49.627Z,1005.99
2018-04-23T05:15:24.967Z,1006.03
2018-04-23T05:16:00.070Z,1006.05
2018-04-23T05:16:35.515Z,1006.00
2018-04-23T05:17:10.801Z,1006.05
2018-04-23T05:17:46.174Z,1006.05
2018-04-23T05:18:21.592Z,1006.05
2018-04-23T05:18:56.977Z,1006.08
2018-04-23T05:19:32.294Z,1006.10
2018-04-23T05:20:07.544Z,1006.06
2018-04-23T05:20:42.749Z,1006.07
2018-04-23T05:21:18.075Z,1006.09
2018-04-23T05:21:53.793Z,1006.03
2018-04-23T05:22:28.937Z,1006.02
2018-04-23T05:23:04.025Z,1005.98
2018-04-23T05:23:39.429Z,1005.99
2018-04-23T05:24:14.676Z,1005.94
2018-04-23T05:24:50.103Z,1005.97
2018-04-23T05:25:25.329Z,1005.97
2018-04-23T05:26:00.683Z,1005.98
2018-04-23T05:26:36.119Z,1005.98
2018-04-23T05:27:11.845Z,1005.99
2018-04-23T05:27:47.360Z,1006.02
2018-04-23T05:28:22.815Z,1006.03
2018-04-23T05:28:58.017Z,1006.03
2018-04-23T05:29:33.176Z,1006.13
2018-04-23T05:30:08.490Z,1006.08
2018-04-23T05:30:43.657Z,1006.10
2018-04-23T05:31:18.965Z,1006.13
2018-04-23T05:31:54.508Z,1006.13
2018-04-23T05:32:29.721Z,1006.15
2018-04-23T05:33:05.574Z,1006.16
2018-04-23T05:33:40.911Z,1006.13
2018-04-23T05:34:16.263Z,1006.18
2018-04-23T05:34:51.784Z,1006.15
2018-04-23T05:35:27.273Z,1006.11
2018-04-23T05:36:02.812Z,1006.14
2018-04-23T05:36:39.248Z,1006.19
2018-04-23T05:37:14.815Z,1006.13
2018-04-23T05:37:50.645Z,1006.21
2018-04-23T05:38:26.393Z,1006.24
2018-04-23T05:39:01.521Z,1006.22
2018-04-23T05:39:36.633Z,1006.27
2018-04-23T05:40:12.281Z,1006.24
2018-04-23T05:40:47.589Z,1006.27
2018-04-23T05:41:22.853Z,1006.27
2018-04-23T05:41:58.148Z,1006.26
2018-04-23T05:42:33.388Z,1006.31
2018-04-23T05:43:08.831Z,1006.28
2018-04-23T05:43:44.437Z,1006.27
2018-04-23T05:44:19.683Z,1006.27
2018-04-23T05:44:54.987Z,1006.29
2018-04-23T05:45:30.425Z,1006.28
2018-04-23T05:46:05.895Z,1006.24
2018-04-23T05:46:41.978Z,1006.26
2018-04-23T05:47:17.238Z,1006.34
2018-04-23T05:47:52.730Z,1006.28
2018-04-23T05:48:28.272Z,1006.31
2018-04-23T05:49:03.588Z,1006.27
2018-04-23T05:49:39.172Z,1006.25
2018-04-23T05:50:14.474Z,1006.23
2018-04-23T05:50:49.703Z,1006.28
2018-04-23T05:51:25.067Z,1006.35
2018-04-23T05:52:00.314Z,1006.23
2018-04-23T05:52:35.634Z,1006.26
2018-04-23T05:53:10.981Z,1006.26
2018-04-23T05:53:46.216Z,1006.26
2018-04-23T05:54:22.058Z,1006.30
2018-04-23T05:54:57.625Z,1006.32
2018-04-23T05:55:32.980Z,1006.29
2018-04-23T05:56:08.291Z,1006.31
2018-04-23T05:56:43.348Z,1006.29
2018-04-23T05:57:18.360Z,1006.30
2018-04-23T05:57:53.788Z,1006.31
2018-04-23T05:58:29.221Z,1006.30
2018-04-23T05:59:04.565Z,1006.26
2018-04-23T05:59:39.755Z,1006.29
2018-04-23T06:00:15.142Z,1006.36
2018-04-23T06:00:50.470Z,1006.33
2018-04-23T06:01:26.210Z,1006.33
2018-04-23T06:02:01.667Z,1006.40
2018-04-23T06:02:37.005Z,1006.37
2018-04-23T06:03:12.498Z,1006.39
2018-04-23T06:03:47.983Z,1006.43
2018-04-23T06:04:23.718Z,1006.43
2018-04-23T06:04:59.353Z,1006.42
2018-04-23T06:05:35.002Z,1006.41
2018-04-23T06:06:10.649Z,1006.41
2018-04-23T06:06:46.078Z,1006.43
2018-04-23T06:07:21.763Z,1006.41
2018-04-23T06:07:57.170Z,1006.51
2018-04-23T06:08:32.305Z,1006.43
2018-04-23T06:09:11.320Z,1006.41
2018-04-23T06:09:46.547Z,1006.42
2018-04-23T06:10:24.257Z,1006.44
2018-04-23T06:11:02.857Z,1006.47
2018-04-23T06:11:38.291Z,1006.51
2018-04-23T06:12:16.751Z,1006.50
2018-04-23T06:12:52.102Z,1006.53
2018-04-23T06:13:27.588Z,1006.54
2018-04-23T06:14:03.226Z,1006.58
2018-04-23T06:14:38.560Z,1006.56
2018-04-23T06:15:13.890Z,1006.59
2018-04-23T06:15:49.206Z,1006.56
2018-04-23T06:16:24.812Z,1006.56
2018-04-23T06:17:00.261Z,1006.58
2018-04-23T06:17:35.493Z,1006.59
2018-04-23T06:18:11.161Z,1006.60
2018-04-23T06:18:46.676Z,1006.56
2018-04-23T06:19:21.839Z,1006.61
2018-04-23T06:19:57.343Z,1006.53
2018-04-23T06:20:32.669Z,1006.56
2018-04-23T06:21:07.881Z,1006.55
2018-04-23T06:21:43.536Z,1006.65
2018-04-23T06:22:18.871Z,1006.60
2018-04-23T06:22:54.246Z,1006.67
2018-04-23T06:23:29.681Z,1006.63
2018-04-23T06:24:05.102Z,1006.64
2018-04-23T06:24:40.815Z,1006.65
2018-04-23T06:25:16.353Z,1006.66
2018-04-23T06:25:55.071Z,1006.60
2018-04-23T06:26:35.211Z,1006.60
2018-04-23T06:27:10.555Z,1006.65
2018-04-23T06:27:46.782Z,1006.62
2018-04-23T06:28:27.896Z,1006.65
2018-04-23T06:29:03.342Z,1006.64
2018-04-23T06:29:38.680Z,1006.66
2018-04-23T06:30:14.102Z,1006.63
2018-04-23T06:30:49.406Z,1006.63
2018-04-23T06:31:24.786Z,1006.65
2018-04-23T06:32:00.495Z,1006.65
2018-04-23T06:32:35.954Z,1006.63
2018-04-23T06:33:11.472Z,1006.63
2018-04-23T06:33:47.244Z,1006.66
2018-04-23T06:34:22.348Z,1006.65
2018-04-23T06:34:58.181Z,1006.73
2018-04-23T06:35:33.680Z,1006.70
2018-04-23T06:36:08.972Z,1006.69
2018-04-23T06:36:44.566Z,1006.68
2018-04-23T06:37:20.038Z,1006.68
2018-04-23T06:37:55.392Z,1006.64
2018-04-23T06:38:31.145Z,1006.73
2018-04-23T06:39:06.294Z,1006.72
2018-04-23T06:39:41.832Z,1006.74
2018-04-23T06:40:17.350Z,1006.70
2018-04-23T06:40:53.094Z,1006.70
2018-04-23T06:41:28.528Z,1006.67
2018-04-23T06:42:03.976Z,1006.74
2018-04-23T06:42:40.287Z,1006.71
2018-04-23T06:43:15.649Z,1006.71
2018-04-23T06:43:50.774Z,1006.74
2018-04-23T06:44:25.936Z,1006.76
2018-04-23T06:45:01.585Z,1006.76
2018-04-23T06:45:37.471Z,1006.74
2018-04-23T06:46:13.188Z,1006.81
2018-04-23T06:46:51.432Z,1006.81
2018-04-23T06:47:27.057Z,1006.81
2018-04-23T06:48:02.517Z,1006.86
2018-04-23T06:48:40.862Z,1006.86
2018-04-23T06:49:16.199Z,1006.81
2018-04-23T06:49:51.453Z,1006.80
2018-04-23T06:50:26.782Z,1006.81
2018-04-23T06:51:02.398Z,1006.80
2018-04-23T06:51:37.739Z,1006.86
2018-04-23T06:52:13.269Z,1006.82
2018-04-23T06:52:48.809Z,1006.84
2018-04-23T06:53:24.145Z,1006.85
2018-04-23T06:53:59.600Z,1006.87
2018-04-23T06:54:34.889Z,1006.92
2018-04-23T06:55:10.362Z,1006.85
2018-04-23T06:55:46.374Z,1006.89
2018-04-23T06:56:21.614Z,1006.89
2018-04-23T06:56:56.820Z,1006.91
2018-04-23T06:57:32.514Z,1006.91
2018-04-23T06:58:08.126Z,1006.87
2018-04-23T06:58:43.265Z,1006.94
2018-04-23T06:59:18.369Z,1006.92
2018-04-23T06:59:53.686Z,1006.91
2018-04-23T07:00:29.220Z,1006.94
2018-04-23T07:01:04.356Z,1006.91
2018-04-23T07:01:42.298Z,1006.91
2018-04-23T07:02:17.629Z,1006.92
2018-04-23T07:02:52.937Z,1006.94
2018-04-23T07:03:28.382Z,1006.96
2018-04-23T07:04:03.486Z,1006.90
2018-04-23T07:04:38.999Z,1006.92
2018-04-23T07:05:14.407Z,1006.89
2018-04-23T07:05:49.776Z,1006.91
2018-04-23T07:06:25.072Z,1006.90
2018-04-23T07:07:01.620Z,1006.93
2018-04-23T07:07:36.936Z,1006.91
2018-04-23T07:08:12.378Z,1006.93
2018-04-23T07:08:47.680Z,1006.99
2018-04-23T07:09:22.921Z,1006.93
2018-04-23T07:09:58.360Z,1006.94
2018-04-23T07:10:33.991Z,1006.97
2018-04-23T07:11:09.555Z,1006.92